메인 페이지
METAR-TAF:

METAR-TAF

공항 :

히우브랑쿠, 아크리, 브라질

위도: 10-00S, 경도: 067-48W, 고도: 142m

현재 날씨관측

예보는 12분 전, 07:00시(UTC)에 발표되었습니다.
북서4kt
온도 26°C
습도 94%
기압 1011 hPa
시정 10km 이상
1500m 미만 상공 구름 및 적란운 없음

METAR: SBRB 220700Z 31004KT CAVOK 26/25 Q1011

시각: 02:12 (07:12 UTC)

예보

예보는 2 시간 39분 전, 04:33시(UTC)에 발표되었습니다.
예보 대상 시간: 22일 06시부터 22일 18시까지 (UTC)
북북서5kt
시정: 8000m
고도 2000ft 상공 구름 조금
일시적
22일 08시부터 22일 13시까지 (UTC)
3kt
시정: 4000m
고도 400ft 상공 구름 많음
박무

TAF: SBRB 220433Z 2206/2218 33005KT 8000 FEW020 TN24/2210Z TX32/2218Z TEMPO 2208/2213 27003KT 4000 BR BKN004 RMK PHI

4,000개 이상의 공항 관측 자료 및 예보 (METAR 및 TAF 보고).

지도상에서 검색 가능한 기상관측소가 노란 점과 빨간 점으로 표시되어 있습니다.

기상관측소 명을 보려면 표시 위로 마우스를 이동하세요.

날씨 관측과 예보를 보려면 클릭하세요.

지도 변경 : 확대하려면 엑스 표시가 있는 녹색 버튼, 축소하려면 빼기 표시가 있는 녹색 버튼, 다음 페이지의 지도를 보려면 녹색 화살표를 클릭하세요.


METAR-TAF: